La Porte City, IA (50651)

5:39 PM CST on February 06, 2016 (GMT -0600)
Highway 218 North | | Change Station
CLOSE
Current Station
Personal Weather Station
Location: La Porte City, IA
Elevation: 867 ft
Nearby Weather Stations
Active Advisory: Blizzard Watch

Elev 867 ft 42.32 °N, 92.20 °W | Updated 1 second ago

Overcast
Overcast
30.3 °F
Feels Like 22 °F
N
9.0
Wind Variable Wind from NE
Gusts 10.0 mph

Today
High -- | Low -- °F
--% Chance of Precip.
Yesterday
High -- | Low -- °F
Precip. -- in
Pressure 30.12 in
Visibility 5.0 miles
Clouds Overcast 800 ft
Windchill 22 °F
Dew Point 28 °F
Humidity 93%
Rainfall 0.00 in
Snow Depth Not available.
7:17 AM 5:28 PM
Waning Crescent, 3% visible
METAR KVTI 062315Z AUTO 21010KT 5SM BR OVC008 00/M02 A3012 RMK AO2 T10041024
Pressure 30.12 in
Visibility 5.0 miles
Clouds Overcast 800 ft
Windchill 22 °F
Dew Point 28 °F
Humidity 93%
Rainfall 0.00 in
Snow Depth Not available.
7:17 AM 5:28 PM
Waning Crescent, 3% visible
METAR KVTI 062315Z AUTO 21010KT 5SM BR OVC008 00/M02 A3012 RMK AO2 T10041024

10-Day Weather Forecast

Almanac

Astronomy

Feb. 06, 2016 Rise Set
Actual Time
Civil Twilight
Nautical Twilight
Astronomical Twilight
Moon
Length of Visible Light
Length of Day
Tomorrow will be .
, % of the Moon is Illuminated

Today's Extremes

State Highs State Lows

Community

WunderPhotos

Upload Photos

1,891,098 photos uploaded!

WunderBlog® & News

Nearby

Air Quality

  Air Quality AQ Index Pollutant
Not available.

Snow Depth

Station Depth Elevation

Earthquake Activity

City Distance Mag. Time & Date
Minimum magnitude displayed is 2.5.

Coastal Water Temperatures

Place Temperature

Stations

Nearby Weather Stations

Station Location Temp. Windchill Dew Point Humidity Wind Precip. Elev Updated Type
                   

Watches & Warnings

Blizzard Watch
Issued: 4:00 PM CST Feb. 6, 2016 – National Weather Service

... Blizzard watch in effect from Sunday afternoon through Monday
afternoon...

The National Weather Service in Des Moines has issued a blizzard
watch... which is in effect from Sunday afternoon through Monday
afternoon.

* Timing... late Sunday afternoon through Monday afternoon.

* Storm total snow accumulations... up to 2 inches.

* Winds/visibility... northwest winds 30 to 35 mph with gusts to
near 50 mph. Visibilities may drop below one quarter mile for
an extended period with near whiteout conditions possible at
times.

* Impacts... considerable blowing and drifting snow can create
treacherous travel conditions and even lead to nearly
impossible travel in some areas.

Precautionary/preparedness actions...

A blizzard watch means there is a potential for falling and/or
blowing snow with strong winds and extremely poor visibilities.
This can lead to whiteout conditions and make travel very
dangerous.